Time;durP1;ratioP1;P1;durP2;ratioP2;P2;SDS_P1;SDS_P2;PMS_P1;PMS_P2;Temp;Humidity;BMP_temperature;BMP_pressure;BME280_temperature;BME280_humidity;BME280_pressure;Samples;Min_cycle;Max_cycle;Signal;HPM_P1;HPM_P2
2022/05/28 10:10:59;;;;;;;5.03;1.20;;;;;;;19.79;35.56;96925.31;2109928;27;20547;-72
2022/05/28 10:12:12;;;;;;;6.30;1.30;;;;;;;19.86;34.88;96927.38;2091645;28;20218;-72
2022/05/28 10:13:17;;;;;;;5.78;1.40;;;;;;;19.27;35.73;96912.44;2101925;28;20194;-71
2022/05/28 10:14:20;;;;;;;4.97;1.48;;;;;;;19.74;35.84;96930.94;2095456;28;20188;-71
2022/05/28 10:52:15;;;;;;;12.35;1.73;;;;;;;17.10;38.86;96914.50;2080873;28;20575;-72
2022/05/28 10:53:29;;;;;;;6.50;1.05;;;;;;;17.28;39.42;96907.13;2086173;28;20208;-72
2022/05/28 10:54:58;;;;;;;7.40;1.45;;;;;;;17.71;37.82;96919.19;2077392;28;20200;-72
2022/05/28 10:56:14;;;;;;;8.32;1.70;;;;;;;18.13;38.01;96912.81;2080552;28;20525;-72
2022/05/28 10:57:48;;;;;;;6.35;2.10;;;;;;;18.24;37.95;96915.53;2079640;28;20220;-70
2022/05/28 10:59:03;;;;;;;5.65;1.25;;;;;;;18.62;36.54;96909.28;2079201;28;20207;-69
2022/05/28 11:00:07;;;;;;;9.35;1.85;;;;;;;18.66;36.01;96908.09;2082837;28;20200;-70
2022/05/28 11:01:31;;;;;;;5.70;1.55;;;;;;;19.22;35.82;96907.53;2081422;28;20197;-70
2022/05/28 11:02:44;;;;;;;6.53;1.40;;;;;;;19.27;35.20;96903.66;2081851;28;20212;-70
2022/05/28 11:04:11;;;;;;;9.73;1.20;;;;;;;18.57;35.94;96904.31;2089899;28;20195;-70
2022/05/28 11:05:25;;;;;;;4.75;1.15;;;;;;;18.03;36.67;96899.41;2087031;28;20193;-69
2022/05/28 11:06:38;;;;;;;6.10;1.50;;;;;;;17.89;37.14;96900.34;2071334;28;20220;-69
2022/05/28 11:08:02;;;;;;;9.57;1.40;;;;;;;17.76;38.13;96900.34;2086015;28;20195;-69
2022/05/28 11:09:09;;;;;;;6.30;1.30;;;;;;;18.28;37.51;96901.13;2078491;28;20209;-69
2022/05/28 11:10:39;;;;;;;6.43;1.30;;;;;;;18.65;36.39;96897.63;2079254;28;20203;-69
2022/05/28 11:12:02;;;;;;;4.45;1.27;;;;;;;18.60;35.71;96895.31;2074955;28;20248;-69
2022/05/28 11:13:13;;;;;;;6.43;1.40;;;;;;;18.60;36.47;96890.03;2087628;28;20192;-70
2022/05/28 11:14:33;;;;;;;3.47;1.30;;;;;;;18.91;35.51;96895.75;2083694;28;20201;-69
2022/05/28 11:15:59;;;;;;;3.35;0.90;;;;;;;19.01;36.46;96887.97;2080048;28;20193;-70
2022/05/28 11:17:12;;;;;;;6.43;1.48;;;;;;;19.10;35.23;96892.56;2076951;28;20311;-72
2022/05/28 11:18:41;;;;;;;5.97;1.70;;;;;;;19.82;35.34;96890.59;2081874;28;20200;-72
2022/05/28 11:20:02;;;;;;;3.75;1.15;;;;;;;19.94;33.04;96887.03;2084815;28;20193;-72
2022/05/28 11:21:18;;;;;;;9.55;1.45;;;;;;;19.50;34.63;96891.31;2083041;28;20186;-72
2022/05/28 11:22:26;;;;;;;10.80;1.90;;;;;;;19.53;34.90;96885.78;2077787;28;20713;-71
2022/05/28 11:23:53;;;;;;;4.93;1.00;;;;;;;19.61;35.03;96882.56;2080357;28;20244;-71
2022/05/28 11:25:26;;;;;;;20.00;7.50;;;;;;;19.78;34.76;96884.69;2069082;28;20209;-78
2022/05/28 11:26:39;;;;;;;4.03;2.17;;;;;;;19.80;32.67;96874.84;2061709;28;20697;-72
2022/05/28 11:27:55;;;;;;;15.05;10.52;;;;;;;20.06;32.99;96874.59;2077775;28;20192;-70
2022/05/28 11:29:26;;;;;;;7.70;1.30;;;;;;;19.67;33.16;96868.84;2070153;28;20206;-70
2022/05/28 11:30:37;;;;;;;4.10;1.58;;;;;;;19.38;33.72;96864.81;2077337;28;20207;-70
2022/05/28 11:31:41;;;;;;;7.65;1.13;;;;;;;19.61;32.60;96864.00;2069804;28;20204;-69
2022/05/28 11:33:18;;;;;;;9.43;1.60;;;;;;;19.24;34.19;96871.16;2085440;28;20247;-70
2022/05/28 11:34:26;;;;;;;6.10;1.00;;;;;;;19.73;33.93;96869.19;2077081;28;20239;-70
2022/05/28 11:35:49;;;;;;;3.78;1.17;;;;;;;20.07;33.46;96873.66;2082227;28;20200;-70
2022/05/28 11:36:58;;;;;;;3.60;1.10;;;;;;;20.10;33.77;96868.13;2077872;28;20232;-70
2022/05/28 11:38:08;;;;;;;6.78;1.30;;;;;;;19.86;33.75;96868.25;2080634;28;20193;-70
2022/05/28 11:39:36;;;;;;;8.13;1.50;;;;;;;19.54;34.53;96866.28;2080325;28;20838;-70
2022/05/28 11:40:50;;;;;;;9.45;1.48;;;;;;;19.57;33.54;96858.09;2080364;28;20208;-70
2022/05/28 11:42:04;;;;;;;3.50;1.33;;;;;;;19.35;34.46;96856.25;2074795;28;20220;-70
2022/05/28 11:43:16;;;;;;;2.75;0.93;;;;;;;19.36;33.71;96850.00;2087317;28;20195;-72
2022/05/28 11:44:24;;;;;;;5.20;1.20;;;;;;;19.40;34.47;96856.75;2081838;28;20327;-72
2022/05/28 11:45:47;;;;;;;5.95;1.15;;;;;;;19.80;33.29;96852.81;2079794;28;20192;-72
2022/05/28 11:47:25;;;;;;;4.95;1.35;;;;;;;19.90;34.92;96851.16;2073409;28;20223;-72
2022/05/28 11:51:48;;;;;;;2.67;1.13;;;;;;;20.34;33.19;96840.56;2074007;28;20274;-72
2022/05/28 11:52:59;;;;;;;7.90;1.40;;;;;;;20.44;33.00;96835.38;2083137;28;20213;-72
2022/05/28 11:54:15;;;;;;;4.20;1.08;;;;;;;20.38;33.46;96842.03;2080238;28;20188;-72
2022/05/28 11:55:21;;;;;;;6.95;1.25;;;;;;;20.55;32.63;96843.28;2080834;28;20679;-67
2022/05/28 11:56:28;;;;;;;9.32;1.50;;;;;;;20.90;32.25;96831.63;2082652;28;20200;-66
2022/05/28 11:57:44;;;;;;;7.22;1.65;;;;;;;20.23;31.60;96837.00;2080511;28;20201;-66
2022/05/28 11:58:50;;;;;;;10.18;1.60;;;;;;;20.15;32.49;96830.63;2079875;28;20208;-67
2022/05/28 11:59:52;;;;;;;8.98;1.30;;;;;;;19.84;33.00;96838.38;2081971;28;20189;-64
2022/05/28 12:00:57;;;;;;;6.93;1.40;;;;;;;20.12;32.97;96831.72;2082009;28;20196;-66
2022/05/28 12:02:07;;;;;;;11.10;1.80;;;;;;;19.21;33.29;96836.13;2069928;28;20228;-67
2022/05/28 12:03:16;;;;;;;11.63;1.80;;;;;;;19.16;34.43;96818.00;2075494;28;20206;-67
2022/05/28 12:04:19;;;;;;;9.25;1.75;;;;;;;19.26;34.32;96823.41;2074108;28;20202;-67
2022/05/28 12:05:24;;;;;;;18.17;2.20;;;;;;;19.81;34.36;96835.97;2073811;28;20560;-66
2022/05/28 12:06:30;;;;;;;9.40;1.50;;;;;;;20.26;34.01;96825.28;2062223;28;20212;-66
2022/05/28 12:07:37;;;;;;;10.73;1.70;;;;;;;19.73;34.73;96808.25;2079952;28;20197;-66
2022/05/28 12:08:55;;;;;;;9.65;1.80;;;;;;;19.07;34.82;96826.63;2081393;28;20196;-67
2022/05/28 12:09:56;;;;;;;8.00;1.98;;;;;;;18.87;35.80;96823.66;2073746;28;20224;-68
2022/05/28 12:11:30;;;;;;;5.70;1.52;;;;;;;19.08;35.84;96823.88;2077059;28;20208;-68
2022/05/28 12:12:55;;;;;;;5.38;1.42;;;;;;;19.02;35.79;96828.78;2061282;28;20230;-67
2022/05/28 12:14:00;;;;;;;8.75;1.65;;;;;;;19.05;36.23;96824.09;2077354;28;20652;-68
2022/05/28 12:15:14;;;;;;;6.60;1.50;;;;;;;18.81;36.18;96826.75;2078096;28;20240;-68
2022/05/28 12:16:21;;;;;;;6.53;1.30;;;;;;;19.20;35.36;96821.25;2078465;28;20250;-67
2022/05/28 12:17:27;;;;;;;9.07;1.30;;;;;;;18.25;36.78;96815.00;2078291;28;20225;-68
2022/05/28 12:18:28;;;;;;;5.95;1.10;;;;;;;18.64;36.92;96813.94;2076772;28;20207;-67
2022/05/28 12:19:31;;;;;;;4.90;1.88;;;;;;;19.62;35.67;96818.84;2074367;28;20204;-67
2022/05/28 12:20:47;;;;;;;9.38;1.52;;;;;;;20.16;34.79;96821.72;2073347;28;20205;-68
2022/05/28 12:21:49;;;;;;;3.38;1.00;;;;;;;19.94;33.88;96807.53;2066471;28;20225;-67
2022/05/28 12:23:00;;;;;;;6.70;1.40;;;;;;;20.25;34.41;96810.34;2071936;28;20194;-67
2022/05/28 12:24:05;;;;;;;10.48;1.30;;;;;;;20.96;33.23;96807.22;2071703;28;20206;-67
2022/05/28 12:25:30;;;;;;;3.85;1.10;;;;;;;21.26;33.25;96810.88;2076423;28;20201;-67
2022/05/28 12:26:48;;;;;;;5.15;1.20;;;;;;;20.73;32.34;96797.69;2058538;28;20205;-67
2022/05/28 12:28:11;;;;;;;18.15;1.40;;;;;;;21.08;32.49;96807.13;2079072;28;20209;-68
2022/05/28 12:29:59;;;;;;;6.63;1.55;;;;;;;20.64;35.20;96805.38;2077892;28;20262;-67
2022/05/28 12:31:03;;;;;;;5.57;1.20;;;;;;;20.11;33.99;96802.69;2071921;28;20209;-66
2022/05/28 12:32:13;;;;;;;5.25;1.67;;;;;;;20.19;34.12;96800.28;2072941;28;20221;-66
2022/05/28 12:33:29;;;;;;;9.23;1.60;;;;;;;20.48;34.01;96804.97;2075439;28;20197;-67
2022/05/28 12:34:31;;;;;;;12.38;1.45;;;;;;;20.97;33.11;96784.16;2074307;28;20589;-67
2022/05/28 12:35:52;;;;;;;7.30;1.67;;;;;;;19.58;34.73;96797.06;2074264;28;20201;-67
2022/05/28 12:36:56;;;;;;;5.95;1.48;;;;;;;20.44;33.81;96793.78;2073061;28;20229;-67
2022/05/28 12:38:17;;;;;;;9.40;1.25;;;;;;;20.30;33.89;96794.94;2077997;28;20758;-67
2022/05/28 12:39:40;;;;;;;13.32;1.55;;;;;;;20.90;34.14;96793.59;2078385;28;20205;-67
2022/05/28 12:40:56;;;;;;;2.95;1.10;;;;;;;20.56;34.36;96790.13;2073347;28;20197;-67
2022/05/28 12:41:59;;;;;;;6.07;1.67;;;;;;;20.45;33.03;96786.69;2071670;28;20219;-66
2022/05/28 12:43:25;;;;;;;9.88;1.15;;;;;;;20.93;32.94;96794.19;2086016;28;20201;-67
2022/05/28 12:44:27;;;;;;;4.43;1.40;;;;;;;20.63;33.39;96790.47;2072575;28;20587;-67
2022/05/28 12:45:37;;;;;;;12.48;1.75;;;;;;;21.10;32.22;96786.59;2075173;28;20193;-67
2022/05/28 12:46:44;;;;;;;6.05;1.45;;;;;;;21.23;30.14;96773.97;2065022;28;20203;-67
2022/05/28 12:47:45;;;;;;;9.43;1.25;;;;;;;21.00;31.35;96782.09;2084607;28;20232;-66
2022/05/28 12:48:51;;;;;;;5.53;1.42;;;;;;;21.19;31.36;96775.19;2080339;28;20197;-67
2022/05/28 12:50:08;;;;;;;7.28;1.48;;;;;;;20.67;32.27;96777.75;2075379;28;20200;-67
2022/05/28 12:51:31;;;;;;;4.40;1.10;;;;;;;20.91;32.66;96782.84;2073712;28;20205;-67
2022/05/28 12:53:01;;;;;;;6.05;1.33;;;;;;;20.95;31.56;96778.97;2074733;28;20218;-67
2022/05/28 12:54:04;;;;;;;8.07;1.52;;;;;;;20.90;31.63;96765.25;2073776;28;20189;-67
2022/05/28 12:55:29;;;;;;;10.85;2.10;;;;;;;20.88;32.85;96780.47;2073535;28;20646;-67
2022/05/28 12:56:34;;;;;;;5.68;1.65;;;;;;;21.85;32.39;96776.59;2074284;28;20224;-67
2022/05/28 12:57:35;;;;;;;8.90;1.60;;;;;;;22.14;31.80;96771.38;2075900;28;20204;-67
2022/05/28 12:58:37;;;;;;;9.77;1.50;;;;;;;22.38;30.70;96764.81;2074407;28;20204;-67
2022/05/28 12:59:44;;;;;;;5.35;1.60;;;;;;;22.58;30.41;96770.97;2075868;28;20190;-67
2022/05/28 13:00:49;;;;;;;8.80;1.50;;;;;;;22.67;29.08;96763.97;2077034;28;20201;-67
2022/05/28 13:02:19;;;;;;;4.80;1.30;;;;;;;22.14;29.97;96775.81;2067622;28;20228;-67
2022/05/28 13:03:24;;;;;;;5.65;1.50;;;;;;;22.87;29.77;96771.94;2081032;28;20224;-66
2022/05/28 13:04:30;;;;;;;4.03;1.00;;;;;;;22.64;30.65;96769.59;2079834;28;20197;-66
2022/05/28 13:05:47;;;;;;;4.90;1.55;;;;;;;22.40;30.22;96764.66;2076042;28;20189;-67
2022/05/28 13:06:55;;;;;;;2.40;0.90;;;;;;;21.65;30.98;96763.25;2068455;28;20225;-67
2022/05/28 13:08:22;;;;;;;6.55;1.55;;;;;;;20.72;31.42;96759.69;2082448;28;20225;-67
2022/05/28 13:09:27;;;;;;;6.13;1.10;;;;;;;20.56;32.59;96762.75;2075254;28;20192;-67
2022/05/28 13:10:29;;;;;;;2.63;1.27;;;;;;;20.82;32.02;96760.63;2072978;28;20285;-67
2022/05/28 13:11:57;;;;;;;2.70;1.02;;;;;;;20.01;32.70;96761.03;2065671;28;20197;-66
2022/05/28 13:13:19;;;;;;;3.25;1.13;;;;;;;20.30;32.37;96746.34;2082835;28;20205;-67
2022/05/28 13:14:40;;;;;;;7.60;1.25;;;;;;;20.67;32.39;96746.78;2076640;28;20193;-67
2022/05/28 13:16:18;;;;;;;10.02;1.25;;;;;;;20.36;32.84;96748.50;2075657;28;20208;-68
2022/05/28 13:17:44;;;;;;;7.05;1.25;;;;;;;20.48;32.86;96758.09;2073722;28;20210;-68
2022/05/28 13:19:13;;;;;;;21.25;11.65;;;;;;;21.51;30.96;96748.50;2083920;28;20201;-65
2022/05/28 13:20:40;;;;;;;56.72;32.63;;;;;;;21.57;31.38;96743.66;2078510;28;20205;-67
2022/05/28 13:21:50;;;;;;;3.03;1.38;;;;;;;20.96;31.63;96740.88;2069779;28;20223;-68
2022/05/28 13:23:10;;;;;;;4.00;1.00;;;;;;;21.31;31.10;96739.63;2079182;28;20205;-67
2022/05/28 13:24:30;;;;;;;4.70;1.08;;;;;;;21.77;30.26;96740.06;2076808;28;20200;-68
2022/05/28 13:26:11;;;;;;;5.30;1.13;;;;;;;22.94;29.75;96741.97;2072302;28;20709;-68
2022/05/28 13:27:38;;;;;;;6.47;1.25;;;;;;;22.64;29.85;96732.34;2057157;28;20263;-67
2022/05/28 13:28:52;;;;;;;5.38;1.13;;;;;;;21.85;31.41;96734.06;2068631;28;20208;-68
2022/05/28 13:30:06;;;;;;;7.43;1.83;;;;;;;22.32;30.03;96736.09;2071056;28;20585;-67
2022/05/28 13:31:10;;;;;;;7.47;1.38;;;;;;;21.58;31.14;96732.88;2074865;28;20196;-67
2022/05/28 13:32:27;;;;;;;5.60;1.00;;;;;;;21.61;30.39;96724.66;2070397;28;20224;-67
2022/05/28 13:33:38;;;;;;;2.60;1.35;;;;;;;22.11;30.86;96726.44;2081400;28;20193;-67
2022/05/28 13:34:39;;;;;;;4.07;1.20;;;;;;;21.27;31.39;96727.59;2073878;28;20236;-68
2022/05/28 13:35:57;;;;;;;4.53;1.25;;;;;;;21.67;30.60;96724.13;2071242;28;20658;-67
2022/05/28 13:36:59;;;;;;;3.63;1.05;;;;;;;21.89;30.58;96727.53;2068269;28;20232;-68
2022/05/28 13:38:00;;;;;;;7.63;1.65;;;;;;;21.99;30.12;96724.88;2071916;28;20269;-68
2022/05/28 13:39:05;;;;;;;7.00;0.93;;;;;;;21.69;29.01;96718.66;2075551;28;20213;-68
2022/05/28 13:40:11;;;;;;;16.77;1.60;;;;;;;22.24;29.93;96717.34;2072432;28;20198;-67
2022/05/28 13:41:20;;;;;;;10.15;1.60;;;;;;;21.27;28.99;96677.13;2075109;28;20204;-67
2022/05/28 13:42:25;;;;;;;14.50;1.65;;;;;;;21.73;30.06;96713.94;2062478;28;20236;-68
2022/05/28 13:43:34;;;;;;;4.25;0.98;;;;;;;21.60;29.61;96708.84;2074124;28;20194;-73
2022/05/28 13:44:42;;;;;;;5.50;1.33;;;;;;;21.73;29.56;96719.25;2079806;28;20853;-73
2022/05/28 13:45:47;;;;;;;6.32;1.17;;;;;;;21.57;29.91;96696.66;2074162;28;20201;-73
2022/05/28 13:46:54;;;;;;;5.30;1.10;;;;;;;21.25;30.22;96708.28;2065784;28;20260;-73
2022/05/28 13:48:06;;;;;;;1.75;1.23;;;;;;;21.85;30.51;96705.69;2085278;28;20207;-73
2022/05/28 13:49:09;;;;;;;7.20;1.10;;;;;;;22.40;29.60;96698.16;2074058;28;20697;-74
2022/05/28 13:50:14;;;;;;;4.68;1.02;;;;;;;22.56;30.78;96706.41;2078464;28;20204;-71
2022/05/28 13:51:17;;;;;;;4.55;1.27;;;;;;;22.57;29.98;96715.25;2085765;28;20197;-71
2022/05/28 13:52:20;;;;;;;7.35;1.50;;;;;;;22.48;31.06;96711.63;2073578;28;20680;-71
2022/05/28 13:53:26;;;;;;;3.17;1.10;;;;;;;21.97;31.30;96702.91;2082312;28;20205;-74
2022/05/28 13:54:28;;;;;;;6.32;1.23;;;;;;;21.57;31.35;96695.84;2073899;28;20201;-73
2022/05/28 13:55:29;;;;;;;12.48;1.30;;;;;;;21.19;32.06;96704.38;2075747;28;20193;-73
2022/05/28 13:56:32;;;;;;;9.73;1.52;;;;;;;21.08;32.09;96695.63;2075832;28;20201;-73
2022/05/28 13:57:35;;;;;;;8.30;1.50;;;;;;;21.16;32.60;96701.13;2072319;28;20732;-73
2022/05/28 13:58:40;;;;;;;9.50;1.60;;;;;;;20.82;32.32;96701.38;2074390;28;20213;-73
2022/05/28 13:59:54;;;;;;;2.92;0.90;;;;;;;20.48;32.59;96705.06;2076602;28;20201;-74
2022/05/28 14:01:01;;;;;;;11.52;1.17;;;;;;;20.34;33.74;96687.66;2076703;28;20200;-73
2022/05/28 14:02:13;;;;;;;8.18;2.17;;;;;;;20.54;33.20;96703.69;2068190;28;20323;-73
2022/05/28 14:03:25;;;;;;;5.25;1.20;;;;;;;20.20;33.81;96696.75;2080013;28;20283;-74
2022/05/28 14:04:30;;;;;;;4.40;1.38;;;;;;;20.38;33.57;96701.50;2073518;28;20193;-74
2022/05/28 14:05:33;;;;;;;4.78;1.10;;;;;;;20.19;34.12;96699.53;2073120;28;20293;-74
2022/05/28 14:06:40;;;;;;;4.80;1.60;;;;;;;20.87;33.38;96696.50;2066622;28;20205;-73
2022/05/28 14:07:42;;;;;;;9.30;1.48;;;;;;;21.65;32.45;96704.00;2080710;28;20204;-74
2022/05/28 14:08:47;;;;;;;4.88;0.90;;;;;;;21.79;32.47;96681.50;2078522;28;20199;-74
2022/05/28 14:09:49;;;;;;;5.28;1.10;;;;;;;22.10;31.14;96699.97;2073805;28;20200;-74
2022/05/28 14:10:59;;;;;;;6.38;1.33;;;;;;;22.47;30.97;96694.84;2074676;28;20676;-74
2022/05/28 14:12:01;;;;;;;7.68;1.30;;;;;;;22.99;30.74;96699.75;2073233;28;20224;-73
2022/05/28 14:13:04;;;;;;;5.05;1.40;;;;;;;23.02;30.47;96695.97;2078511;28;20230;-74
2022/05/28 14:14:19;;;;;;;4.22;1.65;;;;;;;23.45;29.69;96691.03;2076058;28;20559;-73
2022/05/28 14:15:25;;;;;;;5.15;1.15;;;;;;;24.11;28.19;96691.75;2075256;28;20196;-74
2022/05/28 14:16:52;;;;;;;6.53;1.35;;;;;;;24.53;28.18;96691.16;2065357;28;20626;-73
2022/05/28 14:17:54;;;;;;;3.95;1.00;;;;;;;24.70;27.51;96684.13;2082572;28;20266;-73
2022/05/28 14:18:59;;;;;;;4.80;1.20;;;;;;;23.87;27.88;96671.00;2078122;28;20196;-73
2022/05/28 14:20:03;;;;;;;5.80;1.40;;;;;;;23.65;28.47;96683.78;2069240;28;20201;-73
2022/05/28 14:21:10;;;;;;;11.07;2.00;;;;;;;23.19;28.69;96685.56;2075820;28;20200;-73
2022/05/28 14:22:29;;;;;;;3.70;1.08;;;;;;;22.37;29.56;96658.56;2073220;28;20247;-73
2022/05/28 14:23:33;;;;;;;3.40;1.05;;;;;;;21.83;29.91;96677.56;2078715;28;20188;-73
2022/05/28 14:24:37;;;;;;;8.50;1.70;;;;;;;21.12;30.20;96683.78;2076622;28;20201;-73
2022/05/28 14:25:39;;;;;;;6.18;1.30;;;;;;;20.80;31.24;96676.81;2069601;28;20717;-73
2022/05/28 14:26:41;;;;;;;7.32;1.17;;;;;;;20.11;32.50;96680.75;2060785;28;20230;-73
2022/05/28 14:27:43;;;;;;;5.25;1.17;;;;;;;20.22;32.92;96670.94;2078047;28;20703;-73
2022/05/28 14:28:47;;;;;;;6.43;1.83;;;;;;;20.78;31.83;96684.03;2075949;28;20200;-73
2022/05/28 14:29:50;;;;;;;4.05;1.80;;;;;;;21.13;31.55;96686.31;2073017;28;20616;-73
2022/05/28 14:30:52;;;;;;;6.88;1.75;;;;;;;20.69;32.33;96683.81;2073688;28;20654;-74
2022/05/28 14:31:54;;;;;;;3.38;1.33;;;;;;;21.07;31.63;96686.84;2070408;28;21241;-73
2022/05/28 14:32:56;;;;;;;3.03;1.10;;;;;;;21.47;31.24;96675.38;2084784;28;20203;-79
2022/05/28 14:33:58;;;;;;;23.58;6.78;;;;;;;21.71;30.52;96678.66;2079465;28;20193;-74
2022/05/28 14:35:12;;;;;;;5.43;1.35;;;;;;;21.87;30.64;96694.91;2073512;28;20263;-65
2022/05/28 14:36:27;;;;;;;3.20;1.27;;;;;;;21.29;30.74;96679.66;2075575;28;20197;-65
2022/05/28 14:37:31;;;;;;;6.75;1.55;;;;;;;21.20;30.22;96674.19;2076768;28;20217;-65
2022/05/28 14:38:33;;;;;;;4.18;1.00;;;;;;;21.25;30.15;96680.91;2067847;28;20208;-65
2022/05/28 14:39:46;;;;;;;7.53;1.52;;;;;;;20.91;30.07;96676.69;2069257;28;20640;-66
2022/05/28 14:40:50;;;;;;;5.43;1.08;;;;;;;20.86;30.75;96676.25;2074949;28;20588;-65
2022/05/28 14:42:02;;;;;;;9.32;1.65;;;;;;;21.33;30.91;96665.13;2068871;28;20235;-65
2022/05/28 14:43:05;;;;;;;6.35;1.13;;;;;;;21.12;30.89;96655.41;2080203;28;20193;-65
2022/05/28 14:44:13;;;;;;;4.20;1.10;;;;;;;20.81;31.19;96668.72;2078013;28;20197;-65
2022/05/28 14:45:32;;;;;;;8.60;1.70;;;;;;;20.39;31.63;96669.53;2076143;28;20552;-65
2022/05/28 14:46:39;;;;;;;2.33;0.90;;;;;;;20.98;30.92;96669.06;2072808;28;20201;-65
2022/05/28 14:47:40;;;;;;;5.30;1.35;;;;;;;20.88;30.13;96664.53;2077557;28;20201;-65
2022/05/28 14:48:42;;;;;;;9.15;1.98;;;;;;;20.60;30.46;96662.56;2076366;28;20212;-65
2022/05/28 14:49:52;;;;;;;7.95;1.30;;;;;;;21.01;30.49;96661.69;2074464;28;20197;-65
2022/05/28 14:51:06;;;;;;;5.25;1.20;;;;;;;20.93;30.16;96666.78;2073539;28;20197;-65
2022/05/28 14:52:10;;;;;;;4.03;1.23;;;;;;;20.96;30.09;96665.69;2071258;28;20220;-61
2022/05/28 14:53:15;;;;;;;4.20;1.05;;;;;;;20.90;30.34;96659.13;2083026;28;20723;-61
2022/05/28 14:54:28;;;;;;;3.63;0.90;;;;;;;21.31;29.54;96657.28;2076775;28;20201;-61
2022/05/28 14:55:36;;;;;;;2.95;0.98;;;;;;;21.23;30.01;96656.28;2076219;28;20197;-62
2022/05/28 14:56:37;;;;;;;4.15;1.20;;;;;;;20.87;30.68;96651.41;2067969;28;20649;-61
2022/05/28 14:57:43;;;;;;;5.15;1.23;;;;;;;20.75;31.61;96649.78;2080742;28;20630;-61
2022/05/28 14:58:47;;;;;;;3.10;0.90;;;;;;;21.21;31.13;96651.13;2079004;28;20211;-62
2022/05/28 14:59:49;;;;;;;6.50;1.13;;;;;;;21.19;30.70;96655.72;2073903;28;20701;-61
2022/05/28 15:01:03;;;;;;;4.78;1.58;;;;;;;20.50;30.98;96647.41;2075413;28;20202;-66
2022/05/28 15:02:20;;;;;;;4.60;1.00;;;;;;;21.03;30.77;96646.44;2068348;28;20256;-66
2022/05/28 15:03:30;;;;;;;2.28;0.90;;;;;;;20.95;31.13;96648.94;2074972;28;20471;-66
2022/05/28 15:04:34;;;;;;;6.13;1.00;;;;;;;20.83;30.26;96640.22;2072963;28;20245;-66
2022/05/28 15:05:35;;;;;;;2.45;0.90;;;;;;;21.29;30.70;96648.66;2074180;28;20197;-65
2022/05/28 15:06:55;;;;;;;3.97;1.27;;;;;;;21.82;29.61;96644.00;2073066;28;20201;-65
2022/05/28 15:08:01;;;;;;;6.35;1.23;;;;;;;20.97;29.58;96640.84;2074161;28;20554;-68
2022/05/28 15:09:20;;;;;;;17.55;9.57;;;;;;;20.94;30.41;96641.94;2072709;28;20197;-67
2022/05/28 15:10:42;;;;;;;8.95;1.80;;;;;;;20.62;30.90;96645.53;2076936;28;20233;-68
2022/05/28 15:11:46;;;;;;;9.23;2.08;;;;;;;20.95;31.72;96648.09;2068714;28;20225;-61
2022/05/28 15:12:47;;;;;;;4.85;0.95;;;;;;;21.20;31.88;96646.78;2076933;28;20339;-61
2022/05/28 15:13:50;;;;;;;6.28;1.00;;;;;;;20.69;31.69;96646.66;2073249;28;20217;-61
2022/05/28 15:14:52;;;;;;;6.90;1.90;;;;;;;21.05;30.63;96643.66;2071792;28;20406;-61
2022/05/28 15:15:56;;;;;;;5.03;1.25;;;;;;;20.65;31.60;96647.09;2074312;28;20661;-61
2022/05/28 15:16:57;;;;;;;2.95;1.13;;;;;;;21.23;30.81;96638.56;2068905;28;20223;-61
2022/05/28 15:17:59;;;;;;;7.22;1.55;;;;;;;21.54;30.11;96647.28;2083723;28;20204;-60
2022/05/28 15:19:01;;;;;;;3.10;1.00;;;;;;;21.72;29.72;96641.31;2076726;28;20201;-60
2022/05/28 15:20:03;;;;;;;4.63;1.10;;;;;;;21.97;29.55;96637.28;2076210;28;20676;-61
2022/05/28 15:21:04;;;;;;;3.42;1.17;;;;;;;21.92;30.04;96649.34;2073700;28;20219;-60
2022/05/28 15:22:17;;;;;;;4.45;1.00;;;;;;;22.14;28.98;96646.41;2073255;28;20235;-60
2022/05/28 15:23:20;;;;;;;2.65;0.93;;;;;;;21.45;29.86;96637.47;2075718;28;20392;-60
2022/05/28 15:24:21;;;;;;;5.80;1.10;;;;;;;21.14;30.21;96640.22;2074182;28;20202;-65
2022/05/28 15:25:23;;;;;;;3.33;0.90;;;;;;;21.28;30.14;96630.16;2075882;28;20531;-64
2022/05/28 15:26:24;;;;;;;4.90;1.17;;;;;;;20.91;30.24;96622.78;2061702;28;20476;-64
2022/05/28 15:27:27;;;;;;;4.68;1.13;;;;;;;21.28;30.31;96636.34;2079373;28;20201;-64
2022/05/28 15:28:28;;;;;;;4.07;1.52;;;;;;;21.06;30.46;96631.22;2081936;28;20306;-65
2022/05/28 15:29:30;;;;;;;7.65;0.90;;;;;;;21.83;30.43;96633.22;2067699;28;20211;-65
2022/05/28 15:30:32;;;;;;;6.25;1.13;;;;;;;21.86;30.43;96626.78;2070141;28;20556;-65
2022/05/28 15:31:34;;;;;;;5.20;1.10;;;;;;;20.81;32.03;96620.94;2062412;28;20198;-64
2022/05/28 15:32:37;;;;;;;4.68;1.10;;;;;;;21.57;31.26;96627.59;2069452;28;20249;-64
2022/05/28 15:33:39;;;;;;;6.25;1.35;;;;;;;21.62;30.26;96630.72;2066736;28;20202;-64
2022/05/28 15:34:41;;;;;;;5.95;1.30;;;;;;;21.78;31.03;96626.66;2072766;28;20649;-64
2022/05/28 15:38:23;;;;;;;5.93;1.10;;;;;;;21.68;30.95;96614.19;2077636;28;20212;-64
2022/05/28 15:39:24;;;;;;;4.85;1.00;;;;;;;21.75;30.28;96621.59;2076623;28;20197;-64
2022/05/28 15:40:26;;;;;;;4.68;1.45;;;;;;;20.88;31.65;96615.94;2078015;28;20202;-64
2022/05/28 15:41:29;;;;;;;3.03;1.38;;;;;;;20.46;32.01;96613.34;2077562;28;20636;-64
2022/05/28 15:42:40;;;;;;;7.40;1.10;;;;;;;20.83;31.61;96611.03;2075458;28;20209;-64
2022/05/28 15:43:42;;;;;;;3.45;1.52;;;;;;;20.89;32.29;96612.31;2073684;28;20201;-65
2022/05/28 15:44:43;;;;;;;8.85;1.35;;;;;;;21.22;32.14;96612.97;2073385;28;20200;-64
2022/05/28 15:45:46;;;;;;;2.60;0.90;;;;;;;20.65;32.80;96607.28;2075013;28;20212;-64
2022/05/28 15:46:47;;;;;;;8.73;1.33;;;;;;;20.98;32.56;96614.16;2067065;28;20668;-64
2022/05/28 15:47:49;;;;;;;2.90;1.10;;;;;;;21.59;31.59;96616.84;2077472;28;20208;-65
2022/05/28 15:48:51;;;;;;;8.27;1.20;;;;;;;21.15;31.02;96607.38;2079161;28;20671;-64
2022/05/28 15:49:55;;;;;;;3.72;1.13;;;;;;;21.02;30.94;96593.50;2078318;28;20201;-64
2022/05/28 15:50:57;;;;;;;3.55;1.13;;;;;;;20.78;31.85;96605.28;2074024;28;20703;-65
2022/05/28 15:51:59;;;;;;;4.00;1.40;;;;;;;20.53;31.25;96603.88;2066063;28;20240;-65
2022/05/28 15:53:01;;;;;;;5.72;1.20;;;;;;;20.98;31.44;96600.06;2079962;28;20560;-64
2022/05/28 15:54:05;;;;;;;2.85;1.10;;;;;;;20.97;31.15;96601.84;2076920;28;20209;-64
2022/05/28 15:55:12;;;;;;;3.17;1.48;;;;;;;20.33;31.51;96608.25;2075181;28;20272;-64
2022/05/28 15:56:16;;;;;;;3.30;1.00;;;;;;;20.28;32.11;96602.47;2075483;28;20262;-65
2022/05/28 15:57:19;;;;;;;7.38;0.90;;;;;;;20.64;31.81;96600.31;2078758;28;20266;-64
2022/05/28 15:58:27;;;;;;;5.65;1.52;;;;;;;20.50;32.21;96601.50;2075050;28;20200;-65
2022/05/28 15:59:31;;;;;;;3.15;1.23;;;;;;;20.35;32.44;96604.50;2073761;28;20194;-65
2022/05/28 16:00:34;;;;;;;3.85;1.05;;;;;;;20.41;32.16;96597.81;2074905;28;20204;-65
2022/05/28 16:01:38;;;;;;;4.90;1.40;;;;;;;20.35;31.93;96564.72;2077102;28;20211;-65
2022/05/28 16:02:40;;;;;;;6.80;1.05;;;;;;;20.50;32.22;96593.53;2075705;28;20717;-65
2022/05/28 16:04:01;;;;;;;4.45;1.30;;;;;;;20.05;32.78;96597.31;2075425;28;20731;-65
2022/05/28 16:05:09;;;;;;;7.10;1.17;;;;;;;19.34;33.47;96593.34;2075285;28;20202;-65
2022/05/28 16:06:11;;;;;;;7.00;1.60;;;;;;;19.64;33.75;96590.97;2073301;28;20208;-65
2022/05/28 16:07:13;;;;;;;7.05;1.10;;;;;;;19.54;33.88;96596.16;2071645;28;20709;-65
2022/05/28 16:09:32;;;;;;;2.30;1.48;;;;;;;19.73;33.17;96593.69;2076541;28;20843;-65
2022/05/28 16:10:33;;;;;;;6.03;1.35;;;;;;;19.53;32.94;96594.50;2077927;28;20202;-64
2022/05/28 16:11:37;;;;;;;4.93;1.15;;;;;;;19.48;33.42;96578.16;2066208;28;20197;-65
2022/05/28 16:12:40;;;;;;;5.57;1.15;;;;;;;19.90;32.68;96588.84;2079538;28;20629;-64
2022/05/28 16:13:42;;;;;;;6.93;1.30;;;;;;;19.89;32.87;96590.63;2073637;28;20202;-65
2022/05/28 16:14:44;;;;;;;3.38;1.17;;;;;;;19.89;32.81;96581.84;2073156;28;20213;-65
2022/05/28 16:15:48;;;;;;;5.43;1.20;;;;;;;19.67;33.38;96588.06;2076617;28;20208;-65
2022/05/28 16:16:49;;;;;;;7.72;1.55;;;;;;;19.85;33.47;96594.50;2073913;28;20213;-65
2022/05/28 16:17:53;;;;;;;10.88;1.20;;;;;;;19.82;33.27;96580.63;2077767;28;20229;-65
2022/05/28 16:18:57;;;;;;;6.65;1.08;;;;;;;19.79;33.28;96578.25;2077663;28;20668;-65
2022/05/28 16:19:58;;;;;;;4.07;1.20;;;;;;;19.69;33.22;96575.53;2075843;28;20197;-65
2022/05/28 16:21:00;;;;;;;2.60;1.25;;;;;;;19.48;33.44;96556.97;2068156;28;20602;-65
2022/05/28 16:22:01;;;;;;;3.83;0.90;;;;;;;19.96;33.38;96571.56;2059512;28;20226;-65